Fairview Valley, Nevada Weather observations

Data are for observation ending at time listed.
 Day   Time    Ave.   Ave.  Ave.  Vector   Max.   Stn.    Total    Solar   Ave.   Ave.    #1       #2
  of    of     Air    Rel.  Wind   Wind    Wind   Baro.  Precip.   Rad.    Soil   Vis.   Cloud   Cloud
Year   Day     Temp.  Hum.  Speed  Dir.    Gust   Pres.                    Temp.          Ceil    Ceil
2015   (PST)    F      %     mph   deg.    mph     mb.     in.     W/m2     F     (km)   k ft.   k ft.
------------------------------------------------------------------------------------------------------
 211   15:50  999.0   999  999.0   999    999.0    999    999.00     999   999.0   999.0  999.0  999.0
 211   16:00  999.0   999  999.0   999    999.0    999    999.00     999   999.0   999.0  999.0  999.0
 211   16:10  999.0   999  999.0   999    999.0    999    999.00     999   999.0   999.0  999.0  999.0
 211   16:20  999.0   999  999.0   999    999.0    999    999.00     999   999.0   999.0  999.0  999.0
 211   16:30  999.0   999  999.0   999    999.0    999    999.00     999   999.0   999.0  999.0  999.0
 211   16:40  999.0   999  999.0   999    999.0    999    999.00     999   999.0   999.0  999.0  999.0
 211   16:50  999.0   999  999.0   999    999.0    999    999.00     999   999.0   999.0  999.0  999.0
 211   17:00  999.0   999  999.0   999    999.0    999    999.00     999   999.0   999.0  999.0  999.0
 211   17:10  999.0   999  999.0   999    999.0    999    999.00     999   999.0   999.0  999.0  999.0
 211   17:20  999.0   999  999.0   999    999.0    999    999.00     999   999.0   999.0  999.0  999.0
 211   17:30  999.0   999  999.0   999    999.0    999    999.00     999   999.0   999.0  999.0  999.0
 211   17:40  999.0   999  999.0   999    999.0    999    999.00     999   999.0   999.0  999.0  999.0
 211   17:50   97.1     6    7.7    12     10.8    873     0.00     221    87.4   999.0    0.0  999.0
 211   18:00   96.8     6    3.9   352      8.6    873     0.00     162    87.6   999.0    0.0  999.0
 211   18:10   96.0     6    5.3   353     10.9    873     0.00      97    87.8   999.0    0.0  999.0
 211   18:20   95.3     6   11.1    11     14.9    873     0.00      65    88.0   999.0    0.0  999.0
 211   18:30   94.7     6   12.0    17     17.3    873     0.00      48    88.2   999.0    0.0  999.0
 211   18:40  999.0   999  999.0   999    999.0    999    999.00     999   999.0   999.0  999.0  999.0
 211   18:50   93.4     6   11.6    20     15.1    873     0.00      21    88.6   999.0    0.9  999.0
 211   19:00   92.6     6   10.4    15     14.0    873     0.00      11    88.7   999.0    4.3  999.0
 211   19:10   91.6     7    8.8    12     11.0    873     0.00       5    88.8   999.0   14.2  999.0
 211   19:20   90.3     7    7.6     6      8.8    873     0.00       1    89.0   999.0   13.6  999.0
 211   19:30   88.8     7    5.7    15      8.4    874     0.00       0    89.0   999.0   17.1  999.0
 211   19:40   87.4     8    3.8    26      6.5    874     0.00       0    89.0   999.0   17.3  999.0
 211   19:50   87.0     8    7.3    62     12.0    874     0.00       0    89.1   999.0    5.4  999.0
 211   20:00   87.4     8    6.0   112     10.7    874     0.00       0    89.0   999.0    0.0  999.0
 211   20:10   87.2     8    4.2   122     10.8    874     0.00       0    89.0   999.0    0.0  999.0
 211   20:20   87.2    10    7.5   261     15.7    874     0.00       0    89.0   999.0    0.0  999.0
 211   20:30   87.3    12    4.2   245      9.3    874     0.00       0    89.0   999.0    0.0  999.0
 211   20:40   85.5    13    3.8    60      9.1    874     0.00       0    88.9   999.0    0.0  999.0
 211   20:50   85.3    12    2.4    99     11.2    875     0.00       0    88.9   999.0    0.0  999.0
 211   21:00   83.0    14    9.5    22     14.0    875     0.00       0    88.8   999.0    0.0  999.0
 211   21:10   82.2    16    6.5    14      9.6    875     0.00       0    88.7   999.0    0.0  999.0
 211   21:20   80.5    17    6.0    13      8.6    875     0.00       0    88.6   999.0    0.0  999.0
 211   21:30   80.5    18    4.3    12      6.6    875     0.00       0    88.5   999.0    0.0  999.0
 211   21:40   79.6    18    6.2   359      8.9    875     0.00       0    88.4   999.0    0.0  999.0
 211   21:50   78.4    19    4.8     9      6.8    875     0.00       0    88.3   999.0    0.0  999.0
 211   22:00   77.7    20    5.2    16     10.0    875     0.00       0    88.2   999.0    0.0  999.0
 211   22:10   77.8    20    6.0   356     11.2    875     0.00       0    88.1   999.0    0.0  999.0
 211   22:20   80.7    18    3.2   350      5.4    875     0.00       0    87.9   999.0    3.6  999.0
 211   22:30   79.2    19    3.9    18      6.1    875     0.00       0    87.8   999.0    0.0  999.0
 211   22:40   78.2    20    4.9    52      8.3    875     0.00       0    87.7   999.0    0.0  999.0
 211   22:50   79.1    19    3.3    30      7.7    875     0.00       0    87.5   999.0    0.0  999.0
 211   23:00   77.9    20    1.2    60      5.2    875     0.00       0    87.4   999.0    0.0  999.0
 211   23:10   78.7    20    4.2   126      8.7    875     0.00       0    87.2   999.0    0.0  999.0
 211   23:20   78.6    19    4.7   122      9.2    875     0.00       0    87.1   999.0    3.7  999.0
 211   23:30   78.2    20    4.7   125      9.3    875     0.00       0    87.0   999.0    0.0  999.0
 211   23:40   77.7    20    2.3   116      6.6    875     0.00       0    86.8   999.0    0.0  999.0
 211   23:50   77.6    20    5.4   126     10.8    875     0.00       0    86.7   999.0    2.6  999.0
 212    0:00   77.9    20    3.1   106      9.4    875     0.00       0    86.6   999.0    8.3  999.0
 212    0:10   75.8    22    3.0    58      8.2    875     0.00       0    86.4   999.0   12.3  999.0
 212    0:20   76.9    21    3.5   142      7.2    875     0.00       0    86.3   999.0    2.4  999.0
 212    0:30   75.5    21    6.6   152      9.1    875     0.00       0    86.1   999.0    0.0  999.0
 212    0:40   75.4    21    7.8   167     10.7    875     0.00       0    85.9   999.0   10.9  999.0
 212    0:50   75.6    21    6.3   199     10.7    875     0.00       0    85.8   999.0   19.4  999.0
 212    1:00   72.8    23    5.4   247      8.2    875     0.00       0    85.7   999.0   19.1  999.0
 212    1:10   70.6    25    1.2   250      3.9    875     0.00       0    85.6   999.0   16.4  999.0
 212    1:20   69.6    25    3.6   165      5.8    875     0.00       0    85.4   999.0   15.7  999.0
 212    1:30   69.4    25    3.7   174      4.8    875     0.00       0    85.3   999.0   16.4  999.0
 212    1:40  411.8   2350    3.3   176     23.4    677     5.35       0   259.2    25.4   20.2  999.0
 212    1:50   70.9    25    1.9   188      3.4    875     0.00       0    85.0   999.0    3.4  999.0
 212    2:00   71.0    24    1.9   124      3.8    875     0.00       0    84.8   999.0    1.8  999.0
 212    2:10   71.0    25    3.2   114      5.8    875     0.00       0    84.7   999.0   15.8  999.0
 212    2:20   73.3    23    4.9   126      7.7    875     0.00       0    84.6   999.0   11.6  999.0
 212    2:30   73.4   212    3.9   126      7.5    2370     0.00       0    43.3    10.7   24.2  999.0
 212    2:40  999.0   999  999.0   999    999.0    999    999.00     999   999.0   999.0  999.0  999.0
 212    2:50   73.6    23   11.7   119     15.1    875     0.00       0    84.2   999.0   16.3  999.0
 212    3:00   73.8    23    6.4    99     11.2    875     0.00       0    84.0   999.0   16.2  999.0
 212    3:10   72.2    24    3.6    89      6.4    875     0.00       0    83.9   999.0   15.5  999.0
 212    3:20   70.0    26    6.5    54      8.2    875     0.00       0    83.8   999.0   16.9  999.0
 212    3:30   32.0     2    6.4   212    150.0    999     3.43       0    70.9     5.8    0.0  999.0
 212    3:40  999.0   999  999.0   999    999.0    999    999.00     999   999.0   999.0  999.0  999.0
 212    3:50   69.1    27    4.3    78      6.8    875     0.00       0    83.4   999.0   15.5  999.0
 212    4:00   69.2    26    4.4    91      6.4    875     0.00       0    83.2   999.0   18.5  999.0
 212    4:10   69.8    26    3.2    68      6.1    875     0.00       0    83.1   999.0   14.4  999.0
 212    4:20   53.1   119  212.0   250      0.0    1187    23.11   20580    72.9     0.0   29.0  999.0
 212    4:30  999.0   999  999.0   999    999.0    999    999.00     999   999.0   999.0  999.0  999.0
 212    4:40  999.0   999  999.0   999    999.0    999    999.00     999   999.0   999.0  999.0  999.0
 212    4:50   64.9    28    4.5   191      6.2    876     0.00       1    82.6   999.0   15.2  999.0
 212    5:00   64.0    29    5.7   199      7.2    876     0.00       2    82.5   999.0   11.0  999.0
 212    5:10   65.4    29    5.1   214      6.5    876     0.00       5    82.4   999.0    0.0  999.0
 212    5:20   64.4    29    4.9   197      7.5    876     0.00      11    82.3   999.0    0.0  999.0
 212    5:30   64.2    29    1.2   203      3.3    876     0.00      18    82.1   -6436.0  212.0  999.0
 212    5:40  999.0   999  999.0   999    999.0    999    999.00     999   999.0   999.0  999.0  999.0
 212    5:50   63.3    30    0.0     0      0.0    876     0.00      39    81.9   999.0    0.0  999.0
 212    6:00   64.2    30    1.1   277      4.4    876     0.00      51    81.8   999.0    0.0  999.0
 212    6:10   64.9    30    0.7   326      2.2    876     0.00      62    81.7   999.0    0.0  999.0
 212    6:20   65.6    29    0.2   326      1.9    876     0.00      71    81.6   999.0    0.0  999.0
 212    6:30   67.0    29    0.0     0      0.0    876     0.00      82    81.4   999.0    0.0  999.0
 212    6:40   68.3    28    0.0     0      0.0    876     0.00     111    81.3   999.0    0.0  999.0
 212    6:50   69.5    27    1.3     2      3.7    876     0.00     164    81.2   999.0    0.0  999.0
 212    7:00   71.6    25    0.0     0      0.0    876     0.00     256    81.2   999.0    0.0  999.0
 212    7:10   74.6    23    0.3     6      1.8    876     0.00     342    81.0   999.0    0.0  999.0
 212    7:20   76.5    22    0.2     7      1.7    876     0.00     343    80.9   999.0    0.0  999.0
 212    7:30   78.3    20    0.1    92      2.1    876     0.00     356    80.8   999.0    0.0  999.0
 212    7:40   80.1    18    0.4   292      2.6    876     0.00     482    80.7   999.0    0.0  999.0
 212    7:50   80.3    18    0.8     3      3.1    876     0.00     382    80.6   999.0    0.0  999.0
 212    8:00   81.3    16    0.2   258      3.0    876     0.00     613    80.5   999.0    0.0  999.0
 212    8:10   82.1    14    1.4   304      6.1    876     0.00     268    80.5   999.0    0.0  999.0
 212    8:20   81.4    13    1.3   271      3.6    876     0.00     292    80.4   999.0    0.0  999.0
 212    8:30   82.0    12    2.6    20      6.5    876     0.00     350    80.5   999.0    0.0  999.0
 212    8:40   82.6    12    5.3     6      7.9    876     0.00     553    80.5   999.0    0.0  999.0
 212    8:50   84.9    11    4.6    32      7.7    876     0.00    1006    80.4   999.0    0.0  999.0
 212    9:00   86.1    10    4.8    39      8.5    876     0.00     613    80.4   999.0    0.0  999.0
 212    9:10   85.4    10    5.1    41      8.1    876     0.00     476    80.4   999.0    0.0  999.0
 212    9:20   85.5    10    4.4    29      8.2    876     0.00     400    80.4   999.0    0.0  999.0
 212    9:30   85.4    10    3.7    37      7.2    876     0.00     352    80.4   999.0    0.0  999.0
 212    9:40   86.1     9    4.5    20      9.4    876     0.00     360    80.4   999.0    0.0  999.0
 212    9:50   86.5     9    6.7    20     10.4    876     0.00     394    80.4   999.0    0.0  999.0
 212   10:00   86.4     9    6.0   357      9.3    876     0.00     383    80.4   999.0    0.0  999.0
 212   10:10   86.8     9    5.3    10      9.1    876     0.00     344    80.5   999.0    0.0  999.0
 212   10:20   86.9     9    6.3   356      9.1    876     0.00     336    80.5   999.0    0.0  999.0
 212   10:30   87.4     9    5.5    27      9.4    876     0.00     400    80.6   999.0    0.0  999.0
 212   10:40   88.4     9    4.3    17      8.6    876     0.00     501    80.7   999.0    0.0  999.0
 212   10:50   89.1     8    4.4    11      8.9    876     0.00     611    80.7   999.0    0.0  999.0
 212   11:00   90.1     8    4.5    38     11.5    876     0.00     668    80.8   999.0    0.0  999.0
 212   11:10   91.1     8    2.8   284      6.8    876     0.00     901    80.8   999.0    0.0  999.0
 212   11:20   91.1     9    5.2   273      7.3    876     0.00     944    81.0   999.0    0.0  999.0
 212   11:30   91.8     9    4.3   268      6.9    876     0.00    1092    81.1   999.0    0.0  999.0
 212   11:40   91.8     9    3.1   269      6.6    876     0.00     590    81.1   999.0    0.0  999.0
 212   11:50   92.2     9    1.1   259      4.7    876     0.00     848    81.2   999.0    0.0  999.0
 212   12:00   92.3     9    1.7   172      6.6    876     0.00     334    81.3   999.0    0.0  999.0
 212   12:10   92.9     9    2.5   122      5.9    876     0.00     843    81.5   999.0    0.0  999.0
 212   12:20   93.7     9    5.3   258     10.4    876     0.00     957    81.6   999.0    0.0  999.0
 212   12:30   94.6     9    4.9   231      9.3    875     0.00     898    81.8   999.0    0.0  999.0
 212   12:40   93.4    10    6.2   178     10.6    875     0.00     487    81.9   999.0    0.0  999.0
 212   12:50   93.3    10    2.7   229      7.5    875     0.00     421    82.1   999.0    0.0  999.0
 212   13:00   93.8     9    2.2   212      5.1    875     0.00     443    82.2   999.0    0.0  999.0
 212   13:10   93.3    10    1.2   282      5.5    875     0.00     346    82.5   999.0    0.0  999.0
 212   13:20   93.3    10    1.6   170      4.7    875     0.00     337    82.7   999.0    0.0  999.0
 212   13:30   93.7    10    4.8   224      8.2    875     0.00     296    82.9   999.0    0.0  999.0
 212   13:40   93.5    10    3.5   181      9.5    875     0.00     277    83.1   999.0    0.0  999.0
 212   13:50   93.2    10    4.3   212      9.7    874     0.00     191    83.3   999.0    0.0  999.0
 212   14:00   92.8    10    3.9   262     15.6    874     0.00     198    83.5   999.0    0.0  999.0
 212   14:10   92.5    11   11.9   252     26.2    874     0.00     228    83.7   999.0    0.0  999.0
 212   14:20   92.8    10    9.1   225     18.6    874     0.00     349    83.9   999.0    0.0  999.0
 212   14:30   93.3    10    6.7   224     14.0    874     0.00     274    84.1   999.0    0.0  999.0
 212   14:40   92.6    11    5.4   278      9.9    874     0.00     232    84.3   999.0    0.0  999.0
 212   14:50   93.1    11    7.2   279     12.8    874     0.00     389    84.4   999.0    0.0  999.0
 212   15:00   94.4    10    5.9   302     10.8    874     0.00     789    84.6   999.0    0.0  999.0
 212   15:10   95.6    10    5.8   330     12.2    874     0.00     791    84.8   999.0    0.0  999.0
 212   15:20   96.5    10    7.5   346     16.4    873     0.00     836    84.9   999.0    0.0  999.0
 212   15:30   95.2    10    6.7   344     13.7    873     0.00     447    85.0   999.0    0.0  999.0
 212   15:40   94.8    10    3.2    16      9.2    873     0.00     513    85.1   999.0    0.0  999.0

Return to Fairview Valley graphs page.


Western Regional Climate Center,wrcc@dri.edu